sensor_id;sensor_type;location;lat;lon;timestamp;P1;durP1;ratioP1;P2;durP2;ratioP2
17662;SDS011;8950;56.892;15.090;2022-12-18T00:01:16;11.90;;;10.80;;
17662;SDS011;8950;56.892;15.090;2022-12-18T00:03:42;11.68;;;10.57;;
17662;SDS011;8950;56.892;15.090;2022-12-18T00:06:09;11.00;;;9.90;;
17662;SDS011;8950;56.892;15.090;2022-12-18T00:08:36;11.48;;;10.38;;
17662;SDS011;8950;56.892;15.090;2022-12-18T00:11:03;10.93;;;9.93;;
17662;SDS011;8950;56.892;15.090;2022-12-18T00:13:30;11.88;;;10.77;;
17662;SDS011;8950;56.892;15.090;2022-12-18T00:16:01;11.48;;;10.38;;
17662;SDS011;8950;56.892;15.090;2022-12-18T00:18:28;12.40;;;11.30;;
17662;SDS011;8950;56.892;15.090;2022-12-18T00:20:57;11.60;;;10.50;;
17662;SDS011;8950;56.892;15.090;2022-12-18T00:23:24;11.10;;;10.10;;
17662;SDS011;8950;56.892;15.090;2022-12-18T00:25:51;12.07;;;10.98;;
17662;SDS011;8950;56.892;15.090;2022-12-18T00:28:17;11.45;;;10.45;;
17662;SDS011;8950;56.892;15.090;2022-12-18T00:30:44;12.18;;;10.88;;
17662;SDS011;8950;56.892;15.090;2022-12-18T00:33:12;11.60;;;10.45;;
17662;SDS011;8950;56.892;15.090;2022-12-18T00:35:38;12.35;;;11.15;;
17662;SDS011;8950;56.892;15.090;2022-12-18T00:38:04;11.77;;;10.57;;
17662;SDS011;8950;56.892;15.090;2022-12-18T00:40:31;11.35;;;10.25;;
17662;SDS011;8950;56.892;15.090;2022-12-18T00:43:00;11.15;;;10.15;;
17662;SDS011;8950;56.892;15.090;2022-12-18T00:45:26;10.82;;;9.75;;
17662;SDS011;8950;56.892;15.090;2022-12-18T00:47:53;10.98;;;9.88;;
17662;SDS011;8950;56.892;15.090;2022-12-18T00:50:22;11.32;;;10.13;;
17662;SDS011;8950;56.892;15.090;2022-12-18T00:52:49;11.90;;;10.80;;
17662;SDS011;8950;56.892;15.090;2022-12-18T00:55:15;10.13;;;9.20;;
17662;SDS011;8950;56.892;15.090;2022-12-18T00:57:42;10.43;;;9.45;;
17662;SDS011;8950;56.892;15.090;2022-12-18T01:00:10;10.93;;;9.82;;
17662;SDS011;8950;56.892;15.090;2022-12-18T01:02:36;10.90;;;9.80;;
17662;SDS011;8950;56.892;15.090;2022-12-18T01:05:04;10.80;;;9.80;;
17662;SDS011;8950;56.892;15.090;2022-12-18T01:07:32;10.63;;;9.63;;
17662;SDS011;8950;56.892;15.090;2022-12-18T01:09:58;10.50;;;9.43;;
17662;SDS011;8950;56.892;15.090;2022-12-18T01:12:25;11.95;;;10.85;;
17662;SDS011;8950;56.892;15.090;2022-12-18T01:14:51;11.25;;;10.18;;
17662;SDS011;8950;56.892;15.090;2022-12-18T01:17:17;11.52;;;10.43;;
17662;SDS011;8950;56.892;15.090;2022-12-18T01:19:44;12.60;;;11.40;;
17662;SDS011;8950;56.892;15.090;2022-12-18T01:22:11;11.85;;;10.75;;
17662;SDS011;8950;56.892;15.090;2022-12-18T01:24:39;11.80;;;10.57;;
17662;SDS011;8950;56.892;15.090;2022-12-18T01:27:05;11.93;;;10.82;;
17662;SDS011;8950;56.892;15.090;2022-12-18T01:29:32;13.52;;;12.23;;
17662;SDS011;8950;56.892;15.090;2022-12-18T01:31:58;12.55;;;11.35;;
17662;SDS011;8950;56.892;15.090;2022-12-18T01:34:24;12.13;;;11.02;;
17662;SDS011;8950;56.892;15.090;2022-12-18T01:36:51;12.13;;;11.02;;
17662;SDS011;8950;56.892;15.090;2022-12-18T01:39:18;12.13;;;11.02;;
17662;SDS011;8950;56.892;15.090;2022-12-18T01:41:46;11.73;;;10.60;;
17662;SDS011;8950;56.892;15.090;2022-12-18T01:47:13;13.52;;;12.23;;
17662;SDS011;8950;56.892;15.090;2022-12-18T01:49:41;12.23;;;11.13;;
17662;SDS011;8950;56.892;15.090;2022-12-18T01:52:07;13.38;;;12.00;;
17662;SDS011;8950;56.892;15.090;2022-12-18T01:54:34;12.52;;;11.38;;
17662;SDS011;8950;56.892;15.090;2022-12-18T01:57:02;13.85;;;12.45;;
17662;SDS011;8950;56.892;15.090;2022-12-18T01:59:28;12.27;;;11.15;;
17662;SDS011;8950;56.892;15.090;2022-12-18T02:01:56;13.02;;;11.75;;
17662;SDS011;8950;56.892;15.090;2022-12-18T02:04:23;12.48;;;11.27;;
17662;SDS011;8950;56.892;15.090;2022-12-18T02:06:51;12.60;;;11.40;;
17662;SDS011;8950;56.892;15.090;2022-12-18T02:09:19;12.85;;;11.65;;
17662;SDS011;8950;56.892;15.090;2022-12-18T02:11:48;12.05;;;10.95;;
17662;SDS011;8950;56.892;15.090;2022-12-18T02:14:21;12.68;;;11.48;;
17662;SDS011;8950;56.892;15.090;2022-12-18T02:16:51;12.77;;;11.57;;
17662;SDS011;8950;56.892;15.090;2022-12-18T02:19:23;12.85;;;11.55;;
17662;SDS011;8950;56.892;15.090;2022-12-18T02:21:55;12.10;;;10.93;;
17662;SDS011;8950;56.892;15.090;2022-12-18T02:24:26;13.27;;;11.98;;
17662;SDS011;8950;56.892;15.090;2022-12-18T02:26:56;12.52;;;11.35;;
17662;SDS011;8950;56.892;15.090;2022-12-18T02:29:24;12.13;;;10.95;;
17662;SDS011;8950;56.892;15.090;2022-12-18T02:31:54;12.13;;;11.00;;
17662;SDS011;8950;56.892;15.090;2022-12-18T02:34:22;12.20;;;11.07;;
17662;SDS011;8950;56.892;15.090;2022-12-18T02:36:50;11.80;;;10.73;;
17662;SDS011;8950;56.892;15.090;2022-12-18T02:39:17;12.70;;;11.50;;
17662;SDS011;8950;56.892;15.090;2022-12-18T02:41:45;12.00;;;10.90;;
17662;SDS011;8950;56.892;15.090;2022-12-18T02:44:14;11.30;;;10.30;;
17662;SDS011;8950;56.892;15.090;2022-12-18T02:46:41;12.02;;;10.93;;
17662;SDS011;8950;56.892;15.090;2022-12-18T02:49:11;11.65;;;10.55;;
17662;SDS011;8950;56.892;15.090;2022-12-18T02:51:40;11.50;;;10.40;;
17662;SDS011;8950;56.892;15.090;2022-12-18T02:54:13;11.45;;;10.35;;
17662;SDS011;8950;56.892;15.090;2022-12-18T02:56:43;11.27;;;10.25;;
17662;SDS011;8950;56.892;15.090;2022-12-18T02:59:14;11.00;;;9.90;;
17662;SDS011;8950;56.892;15.090;2022-12-18T03:01:46;12.15;;;9.80;;
17662;SDS011;8950;56.892;15.090;2022-12-18T03:04:16;10.52;;;9.63;;
17662;SDS011;8950;56.892;15.090;2022-12-18T03:06:44;10.15;;;9.25;;
17662;SDS011;8950;56.892;15.090;2022-12-18T03:09:14;10.57;;;9.50;;
17662;SDS011;8950;56.892;15.090;2022-12-18T03:11:42;10.77;;;9.77;;
17662;SDS011;8950;56.892;15.090;2022-12-18T03:14:30;10.48;;;9.45;;
17662;SDS011;8950;56.892;15.090;2022-12-18T03:16:59;10.00;;;9.02;;
17662;SDS011;8950;56.892;15.090;2022-12-18T03:19:27;10.25;;;9.20;;
17662;SDS011;8950;56.892;15.090;2022-12-18T03:21:55;10.18;;;9.27;;
17662;SDS011;8950;56.892;15.090;2022-12-18T03:24:23;10.18;;;9.20;;
17662;SDS011;8950;56.892;15.090;2022-12-18T03:26:51;9.50;;;8.60;;
17662;SDS011;8950;56.892;15.090;2022-12-18T03:29:20;9.93;;;9.02;;
17662;SDS011;8950;56.892;15.090;2022-12-18T03:31:49;9.55;;;8.70;;
17662;SDS011;8950;56.892;15.090;2022-12-18T03:34:17;9.55;;;8.57;;
17662;SDS011;8950;56.892;15.090;2022-12-18T03:36:46;9.98;;;8.50;;
17662;SDS011;8950;56.892;15.090;2022-12-18T03:39:12;9.85;;;8.70;;
17662;SDS011;8950;56.892;15.090;2022-12-18T03:41:41;9.90;;;8.85;;
17662;SDS011;8950;56.892;15.090;2022-12-18T03:44:10;8.75;;;7.95;;
17662;SDS011;8950;56.892;15.090;2022-12-18T03:46:40;9.82;;;8.90;;
17662;SDS011;8950;56.892;15.090;2022-12-18T03:49:10;9.10;;;8.20;;
17662;SDS011;8950;56.892;15.090;2022-12-18T03:51:38;8.50;;;7.78;;
17662;SDS011;8950;56.892;15.090;2022-12-18T03:54:06;8.63;;;7.85;;
17662;SDS011;8950;56.892;15.090;2022-12-18T03:56:33;8.75;;;8.02;;
17662;SDS011;8950;56.892;15.090;2022-12-18T03:59:01;8.13;;;7.32;;
17662;SDS011;8950;56.892;15.090;2022-12-18T04:01:29;9.30;;;8.45;;
17662;SDS011;8950;56.892;15.090;2022-12-18T04:03:57;8.52;;;7.72;;
17662;SDS011;8950;56.892;15.090;2022-12-18T04:06:26;8.77;;;7.88;;
17662;SDS011;8950;56.892;15.090;2022-12-18T04:08:53;10.05;;;9.15;;
17662;SDS011;8950;56.892;15.090;2022-12-18T04:11:20;9.05;;;8.25;;
17662;SDS011;8950;56.892;15.090;2022-12-18T04:13:47;9.52;;;7.97;;
17662;SDS011;8950;56.892;15.090;2022-12-18T04:16:13;8.10;;;7.32;;
17662;SDS011;8950;56.892;15.090;2022-12-18T04:18:40;8.40;;;7.63;;
17662;SDS011;8950;56.892;15.090;2022-12-18T04:21:06;8.00;;;7.30;;
17662;SDS011;8950;56.892;15.090;2022-12-18T04:23:34;8.02;;;7.22;;
17662;SDS011;8950;56.892;15.090;2022-12-18T04:26:00;7.30;;;6.70;;
17662;SDS011;8950;56.892;15.090;2022-12-18T04:28:28;8.20;;;7.40;;
17662;SDS011;8950;56.892;15.090;2022-12-18T04:30:55;7.88;;;7.10;;
17662;SDS011;8950;56.892;15.090;2022-12-18T04:33:22;8.18;;;7.40;;
17662;SDS011;8950;56.892;15.090;2022-12-18T04:35:48;8.95;;;8.05;;
17662;SDS011;8950;56.892;15.090;2022-12-18T04:38:15;7.72;;;6.97;;
17662;SDS011;8950;56.892;15.090;2022-12-18T04:40:43;7.15;;;6.45;;
17662;SDS011;8950;56.892;15.090;2022-12-18T04:43:09;7.30;;;6.70;;
17662;SDS011;8950;56.892;15.090;2022-12-18T04:45:36;7.25;;;6.57;;
17662;SDS011;8950;56.892;15.090;2022-12-18T04:48:02;7.47;;;6.65;;
17662;SDS011;8950;56.892;15.090;2022-12-18T04:50:29;7.95;;;6.63;;
17662;SDS011;8950;56.892;15.090;2022-12-18T04:52:56;8.50;;;6.50;;
17662;SDS011;8950;56.892;15.090;2022-12-18T04:55:25;6.50;;;6.00;;
17662;SDS011;8950;56.892;15.090;2022-12-18T04:57:53;6.90;;;6.20;;
17662;SDS011;8950;56.892;15.090;2022-12-18T05:00:20;6.25;;;5.70;;
17662;SDS011;8950;56.892;15.090;2022-12-18T05:02:47;6.28;;;5.68;;
17662;SDS011;8950;56.892;15.090;2022-12-18T05:05:13;6.90;;;5.75;;
17662;SDS011;8950;56.892;15.090;2022-12-18T05:07:40;6.75;;;6.07;;
17662;SDS011;8950;56.892;15.090;2022-12-18T05:10:07;7.45;;;6.05;;
17662;SDS011;8950;56.892;15.090;2022-12-18T05:12:33;7.35;;;6.13;;
17662;SDS011;8950;56.892;15.090;2022-12-18T05:15:21;7.13;;;6.45;;
17662;SDS011;8950;56.892;15.090;2022-12-18T05:17:48;6.38;;;5.78;;
17662;SDS011;8950;56.892;15.090;2022-12-18T05:20:14;6.88;;;6.18;;
17662;SDS011;8950;56.892;15.090;2022-12-18T05:22:41;6.05;;;5.45;;
17662;SDS011;8950;56.892;15.090;2022-12-18T05:25:08;6.78;;;6.18;;
17662;SDS011;8950;56.892;15.090;2022-12-18T05:27:34;5.82;;;5.32;;
17662;SDS011;8950;56.892;15.090;2022-12-18T05:30:01;6.22;;;5.68;;
17662;SDS011;8950;56.892;15.090;2022-12-18T05:32:28;6.13;;;5.60;;
17662;SDS011;8950;56.892;15.090;2022-12-18T05:34:55;5.82;;;5.30;;
17662;SDS011;8950;56.892;15.090;2022-12-18T05:37:22;5.57;;;5.18;;
17662;SDS011;8950;56.892;15.090;2022-12-18T05:39:48;6.72;;;6.00;;
17662;SDS011;8950;56.892;15.090;2022-12-18T05:42:15;5.80;;;4.95;;
17662;SDS011;8950;56.892;15.090;2022-12-18T05:44:41;6.00;;;4.93;;
17662;SDS011;8950;56.892;15.090;2022-12-18T05:47:09;5.63;;;5.13;;
17662;SDS011;8950;56.892;15.090;2022-12-18T05:49:37;5.18;;;4.68;;
17662;SDS011;8950;56.892;15.090;2022-12-18T05:52:04;5.72;;;5.20;;
17662;SDS011;8950;56.892;15.090;2022-12-18T05:54:30;5.70;;;5.20;;
17662;SDS011;8950;56.892;15.090;2022-12-18T05:56:57;5.50;;;5.00;;
17662;SDS011;8950;56.892;15.090;2022-12-18T05:59:23;5.85;;;5.25;;
17662;SDS011;8950;56.892;15.090;2022-12-18T06:01:50;5.35;;;4.88;;
17662;SDS011;8950;56.892;15.090;2022-12-18T06:04:17;5.65;;;5.10;;
17662;SDS011;8950;56.892;15.090;2022-12-18T06:06:44;5.03;;;4.40;;
17662;SDS011;8950;56.892;15.090;2022-12-18T06:09:11;5.38;;;4.88;;
17662;SDS011;8950;56.892;15.090;2022-12-18T06:11:37;6.13;;;5.10;;
17662;SDS011;8950;56.892;15.090;2022-12-18T06:14:04;5.20;;;4.70;;
17662;SDS011;8950;56.892;15.090;2022-12-18T06:16:31;6.20;;;4.65;;
17662;SDS011;8950;56.892;15.090;2022-12-18T06:18:58;5.13;;;4.65;;
17662;SDS011;8950;56.892;15.090;2022-12-18T06:21:24;5.28;;;4.78;;
17662;SDS011;8950;56.892;15.090;2022-12-18T06:23:52;5.07;;;4.57;;
17662;SDS011;8950;56.892;15.090;2022-12-18T06:26:19;4.75;;;4.35;;
17662;SDS011;8950;56.892;15.090;2022-12-18T06:28:45;5.18;;;4.68;;
17662;SDS011;8950;56.892;15.090;2022-12-18T06:31:12;5.47;;;4.25;;
17662;SDS011;8950;56.892;15.090;2022-12-18T06:33:39;4.47;;;3.90;;
17662;SDS011;8950;56.892;15.090;2022-12-18T06:36:06;4.70;;;4.30;;
17662;SDS011;8950;56.892;15.090;2022-12-18T06:38:34;4.90;;;4.45;;
17662;SDS011;8950;56.892;15.090;2022-12-18T06:41:06;4.72;;;4.28;;
17662;SDS011;8950;56.892;15.090;2022-12-18T06:43:33;5.25;;;4.28;;
17662;SDS011;8950;56.892;15.090;2022-12-18T06:46:00;5.13;;;4.63;;
17662;SDS011;8950;56.892;15.090;2022-12-18T06:48:27;5.00;;;4.50;;
17662;SDS011;8950;56.892;15.090;2022-12-18T06:50:53;5.50;;;4.25;;
17662;SDS011;8950;56.892;15.090;2022-12-18T06:53:19;4.50;;;4.10;;
17662;SDS011;8950;56.892;15.090;2022-12-18T06:55:46;4.65;;;4.07;;
17662;SDS011;8950;56.892;15.090;2022-12-18T06:58:14;4.63;;;4.22;;
17662;SDS011;8950;56.892;15.090;2022-12-18T07:00:40;4.80;;;4.38;;
17662;SDS011;8950;56.892;15.090;2022-12-18T07:03:07;4.78;;;4.38;;
17662;SDS011;8950;56.892;15.090;2022-12-18T07:05:33;3.95;;;3.65;;
17662;SDS011;8950;56.892;15.090;2022-12-18T07:08:00;4.60;;;4.20;;
17662;SDS011;8950;56.892;15.090;2022-12-18T07:10:26;5.05;;;4.53;;
17662;SDS011;8950;56.892;15.090;2022-12-18T07:12:53;4.72;;;4.32;;
17662;SDS011;8950;56.892;15.090;2022-12-18T07:15:21;4.65;;;4.13;;
17662;SDS011;8950;56.892;15.090;2022-12-18T07:17:47;4.05;;;3.75;;
17662;SDS011;8950;56.892;15.090;2022-12-18T07:20:14;4.90;;;4.22;;
17662;SDS011;8950;56.892;15.090;2022-12-18T07:22:40;4.55;;;4.15;;
17662;SDS011;8950;56.892;15.090;2022-12-18T07:25:07;4.68;;;4.28;;
17662;SDS011;8950;56.892;15.090;2022-12-18T07:27:34;4.50;;;4.10;;
17662;SDS011;8950;56.892;15.090;2022-12-18T07:30:00;4.85;;;4.38;;
17662;SDS011;8950;56.892;15.090;2022-12-18T07:32:28;4.25;;;3.88;;
17662;SDS011;8950;56.892;15.090;2022-12-18T07:34:56;4.50;;;4.00;;
17662;SDS011;8950;56.892;15.090;2022-12-18T07:37:22;4.60;;;4.22;;
17662;SDS011;8950;56.892;15.090;2022-12-18T07:39:48;5.18;;;4.47;;
17662;SDS011;8950;56.892;15.090;2022-12-18T07:42:15;4.40;;;4.00;;
17662;SDS011;8950;56.892;15.090;2022-12-18T07:44:56;4.93;;;4.10;;
17662;SDS011;8950;56.892;15.090;2022-12-18T07:47:23;5.25;;;4.25;;
17662;SDS011;8950;56.892;15.090;2022-12-18T07:49:50;5.28;;;4.70;;
17662;SDS011;8950;56.892;15.090;2022-12-18T07:52:17;4.93;;;4.43;;
17662;SDS011;8950;56.892;15.090;2022-12-18T07:54:43;4.70;;;4.30;;
17662;SDS011;8950;56.892;15.090;2022-12-18T07:57:10;5.45;;;4.60;;
17662;SDS011;8950;56.892;15.090;2022-12-18T07:59:37;4.78;;;4.22;;
17662;SDS011;8950;56.892;15.090;2022-12-18T08:02:03;5.40;;;4.82;;
17662;SDS011;8950;56.892;15.090;2022-12-18T08:04:30;5.38;;;4.47;;
17662;SDS011;8950;56.892;15.090;2022-12-18T08:06:57;4.80;;;4.40;;
17662;SDS011;8950;56.892;15.090;2022-12-18T08:09:24;4.78;;;4.22;;
17662;SDS011;8950;56.892;15.090;2022-12-18T08:11:50;4.97;;;4.32;;
17662;SDS011;8950;56.892;15.090;2022-12-18T08:14:16;4.57;;;4.18;;
17662;SDS011;8950;56.892;15.090;2022-12-18T08:16:43;5.60;;;4.10;;
17662;SDS011;8950;56.892;15.090;2022-12-18T08:19:09;5.95;;;4.95;;
17662;SDS011;8950;56.892;15.090;2022-12-18T08:21:35;4.85;;;4.43;;
17662;SDS011;8950;56.892;15.090;2022-12-18T08:24:04;4.40;;;4.00;;
17662;SDS011;8950;56.892;15.090;2022-12-18T08:26:31;4.60;;;4.15;;
17662;SDS011;8950;56.892;15.090;2022-12-18T08:28:58;4.60;;;4.20;;
17662;SDS011;8950;56.892;15.090;2022-12-18T08:31:25;5.40;;;4.63;;
17662;SDS011;8950;56.892;15.090;2022-12-18T08:33:52;4.40;;;4.00;;
17662;SDS011;8950;56.892;15.090;2022-12-18T08:36:18;4.82;;;4.35;;
17662;SDS011;8950;56.892;15.090;2022-12-18T08:38:45;4.60;;;4.20;;
17662;SDS011;8950;56.892;15.090;2022-12-18T08:41:14;5.15;;;4.28;;
17662;SDS011;8950;56.892;15.090;2022-12-18T08:43:40;6.00;;;4.70;;
17662;SDS011;8950;56.892;15.090;2022-12-18T08:46:25;5.05;;;4.55;;
17662;SDS011;8950;56.892;15.090;2022-12-18T08:48:52;4.70;;;4.25;;
17662;SDS011;8950;56.892;15.090;2022-12-18T08:51:19;5.57;;;4.20;;
17662;SDS011;8950;56.892;15.090;2022-12-18T08:53:46;4.55;;;4.15;;
17662;SDS011;8950;56.892;15.090;2022-12-18T08:56:14;5.03;;;4.45;;
17662;SDS011;8950;56.892;15.090;2022-12-18T08:58:40;5.63;;;4.60;;
17662;SDS011;8950;56.892;15.090;2022-12-18T09:01:08;5.45;;;4.47;;
17662;SDS011;8950;56.892;15.090;2022-12-18T09:03:35;5.90;;;4.80;;
17662;SDS011;8950;56.892;15.090;2022-12-18T09:06:01;6.22;;;4.75;;
17662;SDS011;8950;56.892;15.090;2022-12-18T09:08:28;5.05;;;4.50;;
17662;SDS011;8950;56.892;15.090;2022-12-18T09:10:55;4.88;;;4.38;;
17662;SDS011;8950;56.892;15.090;2022-12-18T09:13:23;5.82;;;4.40;;
17662;SDS011;8950;56.892;15.090;2022-12-18T09:15:50;5.28;;;4.78;;
17662;SDS011;8950;56.892;15.090;2022-12-18T09:18:17;5.07;;;4.57;;
17662;SDS011;8950;56.892;15.090;2022-12-18T09:20:44;5.35;;;4.85;;
17662;SDS011;8950;56.892;15.090;2022-12-18T09:23:11;6.15;;;4.95;;
17662;SDS011;8950;56.892;15.090;2022-12-18T09:25:37;5.20;;;4.70;;
17662;SDS011;8950;56.892;15.090;2022-12-18T09:28:05;5.90;;;4.90;;
17662;SDS011;8950;56.892;15.090;2022-12-18T09:30:34;6.07;;;4.95;;
17662;SDS011;8950;56.892;15.090;2022-12-18T09:33:02;5.32;;;4.82;;
17662;SDS011;8950;56.892;15.090;2022-12-18T09:35:29;5.93;;;5.13;;
17662;SDS011;8950;56.892;15.090;2022-12-18T09:37:55;5.30;;;4.80;;
17662;SDS011;8950;56.892;15.090;2022-12-18T09:40:22;5.15;;;4.65;;
17662;SDS011;8950;56.892;15.090;2022-12-18T09:42:51;6.72;;;4.85;;
17662;SDS011;8950;56.892;15.090;2022-12-18T09:45:18;5.80;;;4.25;;
17662;SDS011;8950;56.892;15.090;2022-12-18T09:47:46;5.50;;;5.00;;
17662;SDS011;8950;56.892;15.090;2022-12-18T09:50:17;5.10;;;4.53;;
17662;SDS011;8950;56.892;15.090;2022-12-18T09:52:46;5.72;;;4.97;;
17662;SDS011;8950;56.892;15.090;2022-12-18T09:55:17;5.47;;;5.05;;
17662;SDS011;8950;56.892;15.090;2022-12-18T09:57:47;5.05;;;4.55;;
17662;SDS011;8950;56.892;15.090;2022-12-18T10:00:16;5.45;;;4.95;;
17662;SDS011;8950;56.892;15.090;2022-12-18T10:02:43;5.13;;;4.47;;
17662;SDS011;8950;56.892;15.090;2022-12-18T10:05:13;5.28;;;4.78;;
17662;SDS011;8950;56.892;15.090;2022-12-18T10:07:52;4.80;;;4.05;;
17662;SDS011;8950;56.892;15.090;2022-12-18T10:10:26;5.45;;;4.82;;
17662;SDS011;8950;56.892;15.090;2022-12-18T10:12:56;5.05;;;4.53;;
17662;SDS011;8950;56.892;15.090;2022-12-18T10:15:26;4.90;;;4.35;;
17662;SDS011;8950;56.892;15.090;2022-12-18T10:17:55;6.47;;;4.70;;
17662;SDS011;8950;56.892;15.090;2022-12-18T10:20:27;4.97;;;4.47;;
17662;SDS011;8950;56.892;15.090;2022-12-18T10:22:57;6.22;;;5.07;;
17662;SDS011;8950;56.892;15.090;2022-12-18T10:25:27;6.40;;;4.65;;
17662;SDS011;8950;56.892;15.090;2022-12-18T10:27:56;5.93;;;4.95;;
17662;SDS011;8950;56.892;15.090;2022-12-18T10:30:23;6.47;;;4.93;;
17662;SDS011;8950;56.892;15.090;2022-12-18T10:32:50;5.40;;;4.90;;
17662;SDS011;8950;56.892;15.090;2022-12-18T10:35:18;4.80;;;4.40;;
17662;SDS011;8950;56.892;15.090;2022-12-18T10:38:03;5.15;;;4.65;;
17662;SDS011;8950;56.892;15.090;2022-12-18T10:40:31;5.25;;;4.68;;
17662;SDS011;8950;56.892;15.090;2022-12-18T10:43:03;4.78;;;4.38;;
17662;SDS011;8950;56.892;15.090;2022-12-18T10:45:29;5.05;;;4.55;;
17662;SDS011;8950;56.892;15.090;2022-12-18T10:47:56;5.18;;;4.68;;
17662;SDS011;8950;56.892;15.090;2022-12-18T10:50:24;4.95;;;4.45;;
17662;SDS011;8950;56.892;15.090;2022-12-18T10:52:53;5.30;;;4.80;;
17662;SDS011;8950;56.892;15.090;2022-12-18T10:55:22;4.90;;;4.47;;
17662;SDS011;8950;56.892;15.090;2022-12-18T10:57:48;4.82;;;4.35;;
17662;SDS011;8950;56.892;15.090;2022-12-18T11:00:22;5.18;;;4.68;;
17662;SDS011;8950;56.892;15.090;2022-12-18T11:02:49;4.75;;;4.32;;
17662;SDS011;8950;56.892;15.090;2022-12-18T11:05:23;5.65;;;5.15;;
17662;SDS011;8950;56.892;15.090;2022-12-18T11:07:50;4.93;;;4.53;;
17662;SDS011;8950;56.892;15.090;2022-12-18T11:10:19;6.40;;;5.30;;
17662;SDS011;8950;56.892;15.090;2022-12-18T11:12:47;4.90;;;4.40;;
17662;SDS011;8950;56.892;15.090;2022-12-18T11:15:15;5.85;;;4.88;;
17662;SDS011;8950;56.892;15.090;2022-12-18T11:17:42;5.63;;;4.95;;
17662;SDS011;8950;56.892;15.090;2022-12-18T11:20:18;5.00;;;4.50;;
17662;SDS011;8950;56.892;15.090;2022-12-18T11:22:53;5.13;;;4.63;;
17662;SDS011;8950;56.892;15.090;2022-12-18T11:25:20;5.00;;;4.50;;
17662;SDS011;8950;56.892;15.090;2022-12-18T11:27:48;5.47;;;4.97;;
17662;SDS011;8950;56.892;15.090;2022-12-18T11:30:20;5.30;;;4.80;;
17662;SDS011;8950;56.892;15.090;2022-12-18T11:32:47;6.05;;;5.45;;
17662;SDS011;8950;56.892;15.090;2022-12-18T11:35:16;5.68;;;5.15;;
17662;SDS011;8950;56.892;15.090;2022-12-18T11:37:46;5.28;;;4.78;;
17662;SDS011;8950;56.892;15.090;2022-12-18T11:40:15;8.63;;;5.88;;
17662;SDS011;8950;56.892;15.090;2022-12-18T11:42:44;5.72;;;5.13;;
17662;SDS011;8950;56.892;15.090;2022-12-18T11:45:29;5.53;;;5.00;;
17662;SDS011;8950;56.892;15.090;2022-12-18T11:47:58;5.30;;;4.72;;
17662;SDS011;8950;56.892;15.090;2022-12-18T11:50:28;6.63;;;5.00;;
17662;SDS011;8950;56.892;15.090;2022-12-18T11:52:55;5.60;;;5.10;;
17662;SDS011;8950;56.892;15.090;2022-12-18T11:55:24;5.72;;;5.10;;
17662;SDS011;8950;56.892;15.090;2022-12-18T11:57:54;5.82;;;5.32;;
17662;SDS011;8950;56.892;15.090;2022-12-18T12:00:23;5.55;;;5.03;;
17662;SDS011;8950;56.892;15.090;2022-12-18T12:03:06;6.03;;;5.03;;
17662;SDS011;8950;56.892;15.090;2022-12-18T12:05:40;5.80;;;5.30;;
17662;SDS011;8950;56.892;15.090;2022-12-18T12:08:14;5.95;;;5.40;;
17662;SDS011;8950;56.892;15.090;2022-12-18T12:10:45;5.68;;;5.15;;
17662;SDS011;8950;56.892;15.090;2022-12-18T12:13:19;5.85;;;5.13;;
17662;SDS011;8950;56.892;15.090;2022-12-18T12:15:51;6.00;;;5.40;;
17662;SDS011;8950;56.892;15.090;2022-12-18T12:18:25;5.32;;;4.82;;
17662;SDS011;8950;56.892;15.090;2022-12-18T12:20:54;5.60;;;4.97;;
17662;SDS011;8950;56.892;15.090;2022-12-18T12:23:24;5.90;;;5.30;;
17662;SDS011;8950;56.892;15.090;2022-12-18T12:25:54;5.88;;;5.38;;
17662;SDS011;8950;56.892;15.090;2022-12-18T12:28:26;6.05;;;5.53;;
17662;SDS011;8950;56.892;15.090;2022-12-18T12:30:55;5.85;;;5.30;;
17662;SDS011;8950;56.892;15.090;2022-12-18T12:33:32;6.05;;;5.40;;
17662;SDS011;8950;56.892;15.090;2022-12-18T12:36:03;6.03;;;5.18;;
17662;SDS011;8950;56.892;15.090;2022-12-18T12:38:34;5.63;;;5.13;;
17662;SDS011;8950;56.892;15.090;2022-12-18T12:41:02;6.38;;;5.50;;
17662;SDS011;8950;56.892;15.090;2022-12-18T12:43:34;6.22;;;5.50;;
17662;SDS011;8950;56.892;15.090;2022-12-18T12:46:04;6.20;;;5.57;;
17662;SDS011;8950;56.892;15.090;2022-12-18T12:48:37;5.75;;;5.25;;
17662;SDS011;8950;56.892;15.090;2022-12-18T12:51:07;6.70;;;6.00;;
17662;SDS011;8950;56.892;15.090;2022-12-18T12:53:35;6.68;;;5.80;;
17662;SDS011;8950;56.892;15.090;2022-12-18T12:56:03;5.90;;;5.30;;
17662;SDS011;8950;56.892;15.090;2022-12-18T12:58:32;6.75;;;5.93;;
17662;SDS011;8950;56.892;15.090;2022-12-18T13:01:04;6.13;;;5.53;;
17662;SDS011;8950;56.892;15.090;2022-12-18T13:03:45;9.35;;;5.65;;
17662;SDS011;8950;56.892;15.090;2022-12-18T13:06:13;6.78;;;5.65;;
17662;SDS011;8950;56.892;15.090;2022-12-18T13:08:52;6.53;;;5.40;;
17662;SDS011;8950;56.892;15.090;2022-12-18T13:11:28;7.75;;;5.90;;
17662;SDS011;8950;56.892;15.090;2022-12-18T13:14:19;6.60;;;5.90;;
17662;SDS011;8950;56.892;15.090;2022-12-18T13:16:46;6.25;;;5.65;;
17662;SDS011;8950;56.892;15.090;2022-12-18T13:19:19;6.22;;;5.65;;
17662;SDS011;8950;56.892;15.090;2022-12-18T13:21:51;7.70;;;6.50;;
17662;SDS011;8950;56.892;15.090;2022-12-18T13:24:21;7.00;;;5.97;;
17662;SDS011;8950;56.892;15.090;2022-12-18T13:26:49;6.43;;;5.82;;
17662;SDS011;8950;56.892;15.090;2022-12-18T13:29:31;7.13;;;6.07;;
17662;SDS011;8950;56.892;15.090;2022-12-18T13:32:19;6.80;;;6.05;;
17662;SDS011;8950;56.892;15.090;2022-12-18T13:34:47;6.72;;;5.75;;
17662;SDS011;8950;56.892;15.090;2022-12-18T13:39:59;6.82;;;6.07;;
17662;SDS011;8950;56.892;15.090;2022-12-18T13:42:36;6.45;;;5.55;;
17662;SDS011;8950;56.892;15.090;2022-12-18T13:45:37;6.70;;;6.00;;
17662;SDS011;8950;56.892;15.090;2022-12-18T13:48:04;6.82;;;6.15;;
17662;SDS011;8950;56.892;15.090;2022-12-18T13:50:32;6.32;;;5.72;;
17662;SDS011;8950;56.892;15.090;2022-12-18T13:52:59;6.63;;;5.93;;
17662;SDS011;8950;56.892;15.090;2022-12-18T13:55:25;6.25;;;5.40;;
17662;SDS011;8950;56.892;15.090;2022-12-18T13:58:02;6.93;;;5.88;;
17662;SDS011;8950;56.892;15.090;2022-12-18T14:00:29;7.07;;;6.38;;
17662;SDS011;8950;56.892;15.090;2022-12-18T14:02:56;7.25;;;6.55;;
17662;SDS011;8950;56.892;15.090;2022-12-18T14:05:23;6.82;;;6.18;;
17662;SDS011;8950;56.892;15.090;2022-12-18T14:07:50;7.25;;;5.80;;
17662;SDS011;8950;56.892;15.090;2022-12-18T14:10:17;7.60;;;6.43;;
17662;SDS011;8950;56.892;15.090;2022-12-18T14:12:45;6.85;;;6.00;;
17662;SDS011;8950;56.892;15.090;2022-12-18T14:15:25;7.10;;;6.40;;
17662;SDS011;8950;56.892;15.090;2022-12-18T14:17:57;8.45;;;7.07;;
17662;SDS011;8950;56.892;15.090;2022-12-18T14:20:24;6.88;;;6.18;;
17662;SDS011;8950;56.892;15.090;2022-12-18T14:22:52;6.97;;;6.25;;
17662;SDS011;8950;56.892;15.090;2022-12-18T14:25:20;6.95;;;6.35;;
17662;SDS011;8950;56.892;15.090;2022-12-18T14:27:48;6.45;;;5.80;;
17662;SDS011;8950;56.892;15.090;2022-12-18T14:30:23;7.13;;;6.28;;
17662;SDS011;8950;56.892;15.090;2022-12-18T14:32:59;8.48;;;6.63;;
17662;SDS011;8950;56.892;15.090;2022-12-18T14:35:25;8.35;;;6.65;;
17662;SDS011;8950;56.892;15.090;2022-12-18T14:37:59;6.60;;;6.00;;
17662;SDS011;8950;56.892;15.090;2022-12-18T14:40:33;7.13;;;6.03;;
17662;SDS011;8950;56.892;15.090;2022-12-18T14:42:59;6.90;;;6.18;;
17662;SDS011;8950;56.892;15.090;2022-12-18T14:45:32;6.80;;;6.10;;
17662;SDS011;8950;56.892;15.090;2022-12-18T14:47:59;7.22;;;6.43;;
17662;SDS011;8950;56.892;15.090;2022-12-18T14:50:26;6.60;;;6.00;;
17662;SDS011;8950;56.892;15.090;2022-12-18T14:52:53;7.10;;;6.43;;
17662;SDS011;8950;56.892;15.090;2022-12-18T14:55:20;6.43;;;5.82;;
17662;SDS011;8950;56.892;15.090;2022-12-18T14:57:48;6.20;;;5.55;;